Time;durP1;ratioP1;P1;durP2;ratioP2;P2;SDS_P1;SDS_P2;PMS_P1;PMS_P2;Temp;Humidity;BMP_temperature;BMP_pressure;BME280_temperature;BME280_humidity;BME280_pressure;Samples;Min_cycle;Max_cycle;Signal;HPM_P1;HPM_P2
2022/01/01 00:01:08;;;;;;;61.10;27.45;;;;;;;4.71;62.53;93710.81;2075242;69;20186;-71
2022/01/01 00:03:34;;;;;;;60.17;26.63;;;;;;;4.73;62.53;93702.66;2075137;69;20612;-71
2022/01/01 00:06:00;;;;;;;60.10;31.05;;;;;;;4.95;61.69;93711.69;2075142;69;20212;-71
2022/01/01 00:08:25;;;;;;;67.25;31.05;;;;;;;4.91;62.18;93711.31;2075181;69;20148;-71
2022/01/01 00:10:52;;;;;;;61.30;29.63;;;;;;;4.97;61.82;93701.47;2075077;69;20140;-72
2022/01/01 00:13:18;;;;;;;57.10;29.17;;;;;;;4.74;63.22;93704.16;2075319;69;20151;-74
2022/01/01 00:15:43;;;;;;;59.05;25.90;;;;;;;4.89;62.85;93706.28;2075146;69;20156;-72
2022/01/01 00:18:10;;;;;;;58.88;28.45;;;;;;;4.80;62.23;93706.78;2075266;69;20190;-71
2022/01/01 00:20:35;;;;;;;51.80;26.55;;;;;;;4.82;63.26;93710.53;2075045;69;20326;-72
2022/01/01 00:23:01;;;;;;;78.85;30.48;;;;;;;4.71;63.38;93707.28;2075228;69;20590;-71
2022/01/01 00:25:27;;;;;;;58.55;28.05;;;;;;;4.49;64.62;93714.97;2075163;69;20229;-71
2022/01/01 00:27:53;;;;;;;62.17;29.95;;;;;;;4.46;63.75;93710.47;2075227;69;20676;-71
2022/01/01 00:30:19;;;;;;;52.63;26.83;;;;;;;4.38;64.38;93706.13;2075176;69;20155;-71
2022/01/01 00:32:45;;;;;;;70.05;33.30;;;;;;;4.36;64.57;93706.69;2075246;69;20155;-71
2022/01/01 00:35:10;;;;;;;83.55;35.30;;;;;;;4.46;64.04;93712.53;2074989;69;20242;-71
2022/01/01 00:37:36;;;;;;;80.05;31.58;;;;;;;4.42;63.93;93714.91;2075184;69;20155;-71
2022/01/01 00:40:02;;;;;;;61.85;29.42;;;;;;;4.48;63.75;93721.81;2075276;69;20646;-72
2022/01/01 00:42:28;;;;;;;60.20;28.13;;;;;;;4.33;64.82;93718.91;2075308;69;20227;-72
2022/01/01 00:44:54;;;;;;;54.05;26.40;;;;;;;4.26;64.56;93719.59;2075158;69;20127;-74
2022/01/01 00:47:19;;;;;;;45.60;22.45;;;;;;;4.08;66.12;93712.97;2075141;69;20155;-71
2022/01/01 00:49:45;;;;;;;52.78;24.73;;;;;;;3.97;66.12;93719.53;2074887;69;20167;-71
2022/01/01 00:52:11;;;;;;;52.03;23.38;;;;;;;4.15;65.26;93729.00;2071700;69;20194;-70
2022/01/01 00:54:36;;;;;;;50.50;24.77;;;;;;;3.79;66.20;93742.78;2075118;69;20226;-71
2022/01/01 00:57:03;;;;;;;51.42;23.48;;;;;;;3.59;66.55;93749.06;2075099;69;20180;-71
2022/01/01 00:59:30;;;;;;;51.85;24.67;;;;;;;3.89;66.12;93743.06;2075087;69;20144;-72
2022/01/01 01:01:57;;;;;;;48.95;24.60;;;;;;;3.77;65.52;93737.75;2075241;69;20167;-71
2022/01/01 01:04:23;;;;;;;45.42;22.80;;;;;;;3.79;65.57;93746.31;2074966;69;20151;-70
2022/01/01 01:06:49;;;;;;;51.67;24.95;;;;;;;3.76;65.68;93749.44;2071710;69;20186;-70
2022/01/01 01:09:14;;;;;;;44.00;21.33;;;;;;;3.78;65.51;93744.81;2075034;69;20602;-70
2022/01/01 01:11:46;;;;;;;37.72;18.65;;;;;;;3.95;65.54;93754.81;2075074;69;20205;-72
2022/01/01 01:14:20;;;;;;;51.53;23.25;;;;;;;3.68;66.13;93756.97;2071957;69;20148;-74
2022/01/01 01:16:47;;;;;;;50.97;23.30;;;;;;;3.31;67.64;93770.66;2075199;69;20151;-73
2022/01/01 01:19:13;;;;;;;48.63;24.42;;;;;;;3.37;67.72;93767.75;2075045;69;20211;-73
2022/01/01 01:21:38;;;;;;;48.25;23.27;;;;;;;3.55;66.39;93749.38;2074952;69;20495;-73
2022/01/01 01:24:04;;;;;;;46.42;22.63;;;;;;;3.46;67.54;93769.34;2075069;69;20136;-72
2022/01/01 01:26:31;;;;;;;49.03;24.13;;;;;;;3.42;67.61;93763.34;2075081;69;20213;-70
2022/01/01 01:28:57;;;;;;;41.45;21.48;;;;;;;3.55;67.98;93757.75;2075182;69;20230;-73
2022/01/01 01:31:24;;;;;;;48.72;22.95;;;;;;;3.13;68.62;93768.75;2075061;69;20143;-73
2022/01/01 01:33:50;;;;;;;43.38;22.15;;;;;;;3.45;67.38;93776.94;2071753;69;20155;-72
2022/01/01 01:36:16;;;;;;;39.28;20.65;;;;;;;3.59;67.66;93763.72;2075107;69;20151;-73
2022/01/01 01:38:42;;;;;;;37.08;19.98;;;;;;;3.66;67.26;93763.06;2075091;69;20144;-70
2022/01/01 01:41:09;;;;;;;43.88;21.33;;;;;;;2.90;69.64;93771.22;2071712;69;20182;-71
2022/01/01 01:43:36;;;;;;;42.00;21.40;;;;;;;3.22;69.27;93770.34;2075038;69;20156;-71
2022/01/01 01:46:04;;;;;;;39.10;20.73;;;;;;;3.40;67.62;93766.66;2071658;69;20144;-71
2022/01/01 01:48:32;;;;;;;40.53;19.95;;;;;;;3.45;67.13;93771.38;2071890;69;20148;-76
2022/01/01 01:50:58;;;;;;;37.78;19.77;;;;;;;3.48;67.58;93761.19;2074868;69;20590;-72
2022/01/01 01:53:24;;;;;;;34.72;18.05;;;;;;;3.51;67.86;93757.31;2075035;69;20224;-71
2022/01/01 01:55:50;;;;;;;43.42;20.52;;;;;;;2.95;69.06;93775.19;2074951;69;20152;-72
2022/01/01 01:58:17;;;;;;;44.47;21.77;;;;;;;3.09;68.01;93773.88;2075173;69;20599;-71
2022/01/01 02:03:27;;;;;;;38.75;20.10;;;;;;;3.14;67.96;93759.09;2074831;69;20238;-72
2022/01/01 02:05:53;;;;;;;36.78;19.83;;;;;;;3.34;67.24;93765.28;2074898;69;20598;-73
2022/01/01 02:08:19;;;;;;;41.10;19.58;;;;;;;3.35;67.01;93756.41;2075023;69;20148;-72
2022/01/01 02:10:48;;;;;;;33.72;18.17;;;;;;;3.33;67.55;93752.66;2074977;69;20160;-71
2022/01/01 02:13:24;;;;;;;32.13;15.55;;;;;;;3.40;67.56;93744.41;2071646;69;20228;-72
2022/01/01 02:18:19;;;;;;;35.67;18.83;;;;;;;3.26;67.70;93759.63;2071633;69;20147;-71
2022/01/01 02:20:49;;;;;;;40.10;19.17;;;;;;;3.23;67.64;93732.88;2074986;69;20534;-71
2022/01/01 02:23:22;;;;;;;36.72;19.17;;;;;;;3.11;68.60;93745.50;2075026;69;20353;-71
2022/01/01 02:25:52;;;;;;;35.90;18.15;;;;;;;2.99;68.37;93748.53;2075073;69;20625;-70
2022/01/01 02:28:18;;;;;;;36.03;18.58;;;;;;;2.92;68.92;93756.75;2074959;69;20148;-71
2022/01/01 02:30:44;;;;;;;35.22;18.30;;;;;;;3.01;68.56;93759.84;2074936;69;20213;-71
2022/01/01 02:33:09;;;;;;;33.65;18.40;;;;;;;3.04;68.15;93753.22;2075070;69;20160;-71
2022/01/01 02:35:35;;;;;;;32.45;17.17;;;;;;;2.98;67.84;93758.16;2074820;69;20235;-71
2022/01/01 02:38:01;;;;;;;32.50;18.55;;;;;;;2.85;69.02;93763.00;2074926;69;20144;-75
2022/01/01 02:40:26;;;;;;;33.85;16.58;;;;;;;3.05;67.93;93759.53;2075027;69;20196;-71
2022/01/01 02:42:53;;;;;;;36.28;17.05;;;;;;;2.76;69.18;93767.69;2074941;69;20188;-72
2022/01/01 02:45:20;;;;;;;34.65;17.10;;;;;;;2.94;69.34;93765.34;2074892;69;20187;-71
2022/01/01 02:47:45;;;;;;;33.38;17.13;;;;;;;2.88;68.62;93759.88;2075023;69;20148;-71
2022/01/01 02:50:11;;;;;;;30.45;16.13;;;;;;;2.78;69.20;93765.09;2074789;69;20186;-71
2022/01/01 02:52:37;;;;;;;32.85;15.80;;;;;;;2.86;69.05;93772.81;2074914;69;20171;-71
2022/01/01 02:55:04;;;;;;;31.10;16.30;;;;;;;2.94;69.12;93780.00;2074857;69;20501;-72
2022/01/01 02:57:29;;;;;;;33.80;16.42;;;;;;;2.61;69.13;93781.38;2074989;69;20662;-71
2022/01/01 02:59:55;;;;;;;30.75;16.70;;;;;;;2.69;68.74;93773.88;2074866;69;20171;-71
2022/01/01 03:02:21;;;;;;;38.42;17.10;;;;;;;2.68;69.38;93772.38;2074892;69;20641;-73
2022/01/01 03:04:48;;;;;;;38.47;16.90;;;;;;;2.76;68.84;93773.25;2074726;69;20183;-74
2022/01/01 03:07:14;;;;;;;31.67;16.50;;;;;;;2.47;70.01;93771.50;2074965;69;20235;-74
2022/01/01 03:09:39;;;;;;;35.88;17.85;;;;;;;2.25;71.23;93767.84;2074851;69;20204;-72
2022/01/01 03:12:08;;;;;;;34.50;17.90;;;;;;;2.53;69.74;93770.13;2071426;69;20136;-72
2022/01/01 03:14:35;;;;;;;32.72;17.13;;;;;;;2.34;71.31;93775.03;2074886;69;20237;-74
2022/01/01 03:17:00;;;;;;;35.60;17.88;;;;;;;2.39;70.43;93781.75;2075419;69;20151;-71
2022/01/01 03:19:26;;;;;;;35.15;17.63;;;;;;;2.49;70.02;93777.28;2071840;69;20764;-74
2022/01/01 03:21:52;;;;;;;30.13;15.73;;;;;;;2.62;69.11;93768.97;2075382;69;20147;-71
2022/01/01 03:24:18;;;;;;;31.55;16.13;;;;;;;2.76;68.79;93778.06;2075421;69;20167;-71
2022/01/01 03:26:44;;;;;;;30.55;16.17;;;;;;;2.77;69.13;93768.44;2075336;69;20136;-72
2022/01/01 03:29:12;;;;;;;30.15;16.45;;;;;;;2.82;69.44;93773.13;2075301;69;20151;-71
2022/01/01 03:31:38;;;;;;;29.52;16.73;;;;;;;2.54;69.85;93779.97;2075297;69;20210;-70
2022/01/01 03:34:04;;;;;;;31.15;16.65;;;;;;;2.72;69.26;93774.84;2075464;69;20183;-70
2022/01/01 03:36:30;;;;;;;32.80;15.82;;;;;;;2.77;69.07;93771.97;2075241;69;20184;-74
2022/01/01 03:38:56;;;;;;;31.45;16.30;;;;;;;2.70;69.07;93767.06;2075320;69;20143;-71
2022/01/01 03:41:22;;;;;;;29.50;15.00;;;;;;;2.67;69.48;93782.00;2075323;69;20143;-72
2022/01/01 03:43:48;;;;;;;27.33;15.65;;;;;;;2.73;68.88;93771.53;2072008;69;20148;-71
2022/01/01 03:46:14;;;;;;;30.42;15.88;;;;;;;2.83;68.56;93771.84;2075324;69;20160;-73
2022/01/01 03:48:40;;;;;;;25.90;13.77;;;;;;;2.74;69.52;93773.03;2075359;69;20239;-71
2022/01/01 03:51:05;;;;;;;28.90;15.00;;;;;;;2.87;68.62;93772.28;2075133;69;20491;-71
2022/01/01 03:53:31;;;;;;;24.90;13.70;;;;;;;2.69;69.74;93787.03;2075297;69;20152;-71
2022/01/01 03:55:58;;;;;;;32.22;15.73;;;;;;;2.42;70.65;93800.88;2075370;69;20529;-71
2022/01/01 03:58:24;;;;;;;31.77;16.75;;;;;;;2.28;70.32;93802.88;2075360;69;20524;-71
2022/01/01 04:00:50;;;;;;;32.03;15.55;;;;;;;2.43;69.76;93799.63;2075309;69;20136;-70
2022/01/01 04:03:19;;;;;;;28.45;14.80;;;;;;;2.63;69.35;93803.06;2075332;69;20144;-71
2022/01/01 04:05:45;;;;;;;31.40;15.98;;;;;;;2.51;69.27;93802.50;2075203;69;20499;-70
2022/01/01 04:08:12;;;;;;;30.30;15.43;;;;;;;2.57;69.38;93799.63;2075261;69;20151;-69
2022/01/01 04:10:39;;;;;;;29.85;16.58;;;;;;;2.50;69.18;93809.34;2075270;69;20689;-69
2022/01/01 04:13:06;;;;;;;31.60;15.88;;;;;;;2.35;69.13;93815.41;2075269;69;20180;-69
2022/01/01 04:15:33;;;;;;;31.67;15.98;;;;;;;2.50;69.70;93814.91;2075207;69;20201;-71
2022/01/01 04:18:03;;;;;;;32.55;15.90;;;;;;;2.50;68.91;93812.13;2075270;69;20231;-72
2022/01/01 04:20:29;;;;;;;27.70;14.98;;;;;;;2.48;69.15;93814.72;2075127;69;20541;-71
2022/01/01 04:22:56;;;;;;;31.83;16.30;;;;;;;2.07;70.79;93815.13;2075210;69;20537;-71
2022/01/01 04:25:24;;;;;;;33.92;17.02;;;;;;;2.14;70.56;93818.00;2075147;69;20140;-73
2022/01/01 04:27:51;;;;;;;31.42;16.63;;;;;;;2.33;70.04;93820.00;2075314;69;20180;-70
2022/01/01 04:30:17;;;;;;;43.00;18.13;;;;;;;2.43;70.33;93813.53;2075198;69;20171;-70
2022/01/01 04:32:43;;;;;;;37.78;17.50;;;;;;;2.44;70.52;93806.69;2075281;69;20148;-70
2022/01/01 04:35:10;;;;;;;35.65;16.65;;;;;;;2.40;69.98;93819.38;2075115;69;20299;-70
2022/01/01 04:37:37;;;;;;;34.25;15.73;;;;;;;2.41;70.14;93816.06;2075202;69;20148;-70
2022/01/01 04:40:04;;;;;;;33.40;15.85;;;;;;;2.44;69.43;93826.13;2075198;69;20148;-70
2022/01/01 04:42:30;;;;;;;32.17;15.93;;;;;;;2.40;69.77;93822.16;2075193;69;20140;-69
2022/01/01 04:44:56;;;;;;;30.25;15.90;;;;;;;2.36;69.82;93821.72;2075352;69;20150;-71
2022/01/01 04:47:21;;;;;;;31.05;15.98;;;;;;;2.21;70.66;93822.97;2075219;69;20568;-74
2022/01/01 04:49:47;;;;;;;32.03;16.60;;;;;;;2.22;69.77;93820.94;2075265;69;20162;-71
2022/01/01 04:52:13;;;;;;;29.33;15.30;;;;;;;2.19;69.93;93819.22;2075165;69;20175;-70
2022/01/01 04:54:41;;;;;;;32.30;16.10;;;;;;;2.23;70.09;93823.19;2075267;69;20144;-74
2022/01/01 04:57:08;;;;;;;29.33;15.52;;;;;;;2.28;69.79;93816.03;2075103;69;20167;-72
2022/01/01 04:59:34;;;;;;;32.50;16.20;;;;;;;2.14;70.52;93826.34;2075290;69;20564;-74
2022/01/01 05:02:03;;;;;;;30.48;15.77;;;;;;;1.90;71.65;93824.44;2075144;69;20159;-72
2022/01/01 05:04:29;;;;;;;31.85;16.02;;;;;;;2.14;70.40;93834.69;2074958;69;20158;-72
2022/01/01 05:06:55;;;;;;;32.22;16.10;;;;;;;2.00;71.04;93849.81;2075247;69;20152;-70
2022/01/01 05:09:21;;;;;;;32.20;16.17;;;;;;;2.01;70.13;93854.06;2075140;69;20456;-70
2022/01/01 05:11:47;;;;;;;32.58;15.55;;;;;;;2.03;69.95;93855.06;2075063;69;20337;-69
2022/01/01 05:14:14;;;;;;;30.25;15.40;;;;;;;2.10;69.85;93864.81;2075147;69;20159;-71
2022/01/01 05:16:40;;;;;;;33.25;16.13;;;;;;;2.00;70.87;93870.00;2075104;69;20151;-70
2022/01/01 05:19:06;;;;;;;31.88;16.77;;;;;;;1.97;70.41;93864.72;2075079;69;20147;-70
2022/01/01 05:21:34;;;;;;;33.22;16.02;;;;;;;1.97;70.09;93875.84;2075004;69;20243;-71
2022/01/01 05:24:01;;;;;;;32.65;15.65;;;;;;;2.09;70.10;93868.84;2075135;69;20154;-70
2022/01/01 05:26:26;;;;;;;30.35;15.70;;;;;;;1.82;70.44;93872.78;2075220;69;20132;-70
2022/01/01 05:28:52;;;;;;;33.95;16.40;;;;;;;1.84;70.48;93871.00;2071681;69;20139;-70
2022/01/01 05:31:19;;;;;;;30.98;15.75;;;;;;;1.96;70.21;93872.31;2075213;69;20159;-70
2022/01/01 05:33:49;;;;;;;33.88;16.50;;;;;;;1.89;70.46;93867.38;2075069;69;20163;-70
2022/01/01 05:36:15;;;;;;;32.13;15.57;;;;;;;1.81;71.28;93876.84;2074964;69;20144;-70
2022/01/01 05:38:41;;;;;;;31.13;16.55;;;;;;;1.79;70.71;93877.38;2074886;69;20530;-70
2022/01/01 05:41:07;;;;;;;29.35;15.52;;;;;;;1.94;70.35;93874.13;2075187;69;20167;-70
2022/01/01 05:43:33;;;;;;;29.42;15.68;;;;;;;1.89;70.64;93884.03;2075097;69;20521;-70
2022/01/01 05:45:58;;;;;;;33.63;15.80;;;;;;;1.88;70.32;93881.78;2075038;69;20225;-70
2022/01/01 05:48:24;;;;;;;30.23;15.30;;;;;;;1.89;70.10;93892.38;2075187;69;20513;-72
2022/01/01 05:50:50;;;;;;;33.72;16.13;;;;;;;1.81;71.30;93885.16;2074923;69;20231;-71
2022/01/01 05:53:17;;;;;;;34.22;17.75;;;;;;;1.44;72.16;93898.50;2074956;69;20205;-71
2022/01/01 05:55:42;;;;;;;32.30;16.35;;;;;;;1.69;71.18;93896.41;2074980;69;20144;-71
2022/01/01 05:58:08;;;;;;;33.67;16.00;;;;;;;1.78;70.74;93896.03;2075053;69;20180;-74
2022/01/01 06:00:35;;;;;;;31.88;16.50;;;;;;;1.38;72.37;93895.03;2074965;69;20151;-71
2022/01/01 06:03:01;;;;;;;31.70;16.17;;;;;;;1.59;71.42;93891.75;2074975;69;20213;-69
2022/01/01 06:05:27;;;;;;;28.77;15.00;;;;;;;1.82;69.99;93900.56;2075135;69;20148;-70
2022/01/01 06:07:57;;;;;;;31.52;16.33;;;;;;;1.46;71.47;93895.19;2075011;69;20159;-71
2022/01/01 06:10:24;;;;;;;33.85;16.30;;;;;;;1.33;71.15;93893.09;2074886;69;20626;-72
2022/01/01 06:12:49;;;;;;;34.35;17.02;;;;;;;1.50;71.21;93903.97;2075043;69;20192;-69
2022/01/01 06:15:15;;;;;;;32.25;16.70;;;;;;;1.56;71.22;93912.22;2076162;69;20159;-68
2022/01/01 06:17:41;;;;;;;31.17;15.07;;;;;;;1.52;70.73;93902.19;2076206;69;20140;-68
2022/01/01 06:20:07;;;;;;;32.20;16.40;;;;;;;1.46;71.70;93903.50;2074808;69;20609;-70
2022/01/01 06:22:32;;;;;;;37.60;16.98;;;;;;;1.56;71.50;93906.66;2075122;69;20156;-75
2022/01/01 06:24:58;;;;;;;33.38;16.35;;;;;;;1.51;71.31;93906.25;2076033;69;20140;-73
2022/01/01 06:27:24;;;;;;;32.10;16.58;;;;;;;1.52;70.84;93909.75;2076462;69;20147;-73
2022/01/01 06:29:50;;;;;;;30.55;15.15;;;;;;;1.58;70.53;93906.91;2076718;69;20657;-70
2022/01/01 06:32:16;;;;;;;29.42;14.52;;;;;;;1.50;70.74;93901.94;2076386;69;20139;-75
2022/01/01 06:34:42;;;;;;;30.60;15.25;;;;;;;1.49;70.92;93910.81;2073399;69;20602;-74
2022/01/01 06:37:08;;;;;;;37.03;16.45;;;;;;;1.21;72.97;93909.09;2076298;69;20199;-75
2022/01/01 06:39:33;;;;;;;32.17;17.52;;;;;;;1.29;72.00;93916.84;2076007;69;20139;-76
2022/01/01 06:41:59;;;;;;;35.75;17.73;;;;;;;1.31;71.14;93926.13;2073217;69;20175;-75
2022/01/01 06:44:25;;;;;;;36.30;17.95;;;;;;;1.05;72.97;93925.91;2076562;69;20204;-75
2022/01/01 06:46:51;;;;;;;36.75;17.77;;;;;;;1.24;72.51;93923.97;2076235;69;20197;-71
2022/01/01 06:49:17;;;;;;;37.35;17.88;;;;;;;1.23;71.82;93928.72;2076518;69;20537;-69
2022/01/01 06:51:42;;;;;;;36.17;18.92;;;;;;;1.25;71.52;93937.28;2076993;69;20151;-73
2022/01/01 06:54:08;;;;;;;37.63;18.75;;;;;;;1.18;71.26;93942.66;2076756;69;20199;-71
2022/01/01 06:56:34;;;;;;;34.40;17.58;;;;;;;1.09;71.58;93943.00;2076991;69;20263;-69
2022/01/01 06:59:00;;;;;;;33.53;17.52;;;;;;;1.22;71.40;93943.13;2076924;69;20160;-70
2022/01/01 07:01:25;;;;;;;149.52;53.85;;;;;;;1.10;71.76;93934.19;2073431;69;20156;-69
2022/01/01 07:03:51;;;;;;;90.95;36.60;;;;;;;1.22;71.23;93926.47;2076998;69;20146;-72
2022/01/01 07:06:16;;;;;;;58.78;26.67;;;;;;;1.32;71.05;93929.66;2074912;69;20634;-74
2022/01/01 07:08:42;;;;;;;55.72;24.45;;;;;;;1.41;70.59;93927.28;2078781;69;20597;-74
2022/01/01 07:11:08;;;;;;;66.43;26.67;;;;;;;1.32;71.02;93935.94;2078752;69;20223;-74
2022/01/01 07:13:33;;;;;;;55.45;22.80;;;;;;;1.29;71.41;93925.91;2075367;69;20143;-73
2022/01/01 07:15:59;;;;;;;80.47;33.28;;;;;;;1.01;71.89;93928.97;2078710;69;20252;-72
2022/01/01 07:18:25;;;;;;;75.40;31.35;;;;;;;1.04;71.78;93938.25;2078905;69;20147;-70
2022/01/01 07:20:50;;;;;;;51.08;24.13;;;;;;;1.17;70.86;93936.38;2078877;69;20152;-71
2022/01/01 07:23:16;;;;;;;43.58;20.95;;;;;;;1.15;70.97;93932.63;2078676;69;20146;-71
2022/01/01 07:25:42;;;;;;;50.90;22.83;;;;;;;1.27;71.66;93950.63;2078690;69;20147;-73
2022/01/01 07:28:09;;;;;;;51.20;23.27;;;;;;;1.32;71.29;93941.50;2078704;69;20179;-76
2022/01/01 07:30:35;;;;;;;49.13;23.40;;;;;;;1.42;71.04;93934.34;2078715;69;20666;-73
2022/01/01 07:33:01;;;;;;;44.30;21.70;;;;;;;1.43;71.57;93937.88;2078774;69;20135;-71
2022/01/01 07:35:27;;;;;;;46.10;21.15;;;;;;;1.29;71.45;93939.03;2078626;69;20157;-71
2022/01/01 07:37:52;;;;;;;46.05;20.90;;;;;;;1.27;71.15;93939.53;2078801;69;20155;-70
2022/01/01 07:40:19;;;;;;;37.80;17.65;;;;;;;1.36;71.16;93932.91;2078713;69;20151;-71
2022/01/01 07:42:45;;;;;;;46.88;23.40;;;;;;;1.32;71.47;93943.53;2078594;69;20155;-72
2022/01/01 07:45:12;;;;;;;40.50;20.77;;;;;;;1.09;72.89;93935.44;2078699;69;20147;-71
2022/01/01 07:47:38;;;;;;;46.97;22.17;;;;;;;1.05;72.25;93937.75;2078608;69;20163;-73
2022/01/01 07:50:06;;;;;;;39.17;20.83;;;;;;;1.15;71.95;93940.94;2078660;69;20135;-72
2022/01/01 07:52:32;;;;;;;55.65;25.77;;;;;;;1.27;71.48;93937.50;2077478;69;20166;-70
2022/01/01 07:54:58;;;;;;;49.10;26.15;;;;;;;1.42;71.34;93930.78;2071800;69;20564;-71
2022/01/01 07:57:24;;;;;;;48.65;25.90;;;;;;;1.44;72.05;93947.69;2075275;69;20146;-76
2022/01/01 07:59:50;;;;;;;46.85;24.52;;;;;;;1.32;71.95;93937.97;2074217;69;20163;-71
2022/01/01 08:02:15;;;;;;;50.63;25.85;;;;;;;1.39;71.59;93923.53;2072726;69;20144;-72
2022/01/01 08:04:41;;;;;;;45.80;24.48;;;;;;;1.42;72.15;93930.78;2074968;69;20618;-72
2022/01/01 08:07:06;;;;;;;56.47;29.27;;;;;;;1.05;74.41;93942.53;2075283;69;20606;-71
2022/01/01 08:09:32;;;;;;;52.83;26.13;;;;;;;1.16;73.13;93934.88;2075846;69;20180;-73
2022/01/01 08:11:58;;;;;;;53.70;26.33;;;;;;;1.35;72.96;93934.91;2076403;69;20151;-71
2022/01/01 08:14:24;;;;;;;48.95;24.73;;;;;;;1.31;73.04;93925.38;2076940;69;20135;-71
2022/01/01 08:17:00;;;;;;;53.05;24.20;;;;;;;1.28;73.28;93935.50;2076602;69;20862;-72
2022/01/01 08:19:27;;;;;;;50.63;25.00;;;;;;;1.25;72.81;93936.53;2075988;69;20628;-71
2022/01/01 08:21:53;;;;;;;43.08;22.77;;;;;;;1.20;73.09;93938.09;2076312;69;20183;-72
2022/01/01 08:24:19;;;;;;;46.50;24.08;;;;;;;1.20;73.31;93929.03;2073390;69;20167;-71
2022/01/01 08:26:45;;;;;;;56.55;27.63;;;;;;;1.30;73.26;93940.53;2072724;69;20265;-70
2022/01/01 08:29:11;;;;;;;56.33;26.92;;;;;;;1.39;72.58;93934.63;2073148;69;20155;-76
2022/01/01 08:31:37;;;;;;;53.38;25.88;;;;;;;1.08;73.72;93936.72;2072976;69;20151;-71
2022/01/01 08:34:04;;;;;;;48.75;25.75;;;;;;;1.31;72.37;93942.78;2072825;69;20188;-76
2022/01/01 08:36:30;;;;;;;47.53;23.88;;;;;;;1.44;72.68;93931.78;2072708;69;20148;-71
2022/01/01 08:38:58;;;;;;;43.78;23.95;;;;;;;1.45;72.55;93935.31;2073088;69;20171;-72
2022/01/01 08:41:25;;;;;;;46.35;25.05;;;;;;;1.54;72.22;93929.41;2073128;69;20554;-73
2022/01/01 08:43:51;;;;;;;48.60;24.45;;;;;;;1.62;71.78;93929.59;2068354;69;20144;-71
2022/01/01 08:46:17;;;;;;;53.92;27.80;;;;;;;1.34;73.21;93936.19;2072950;69;20603;-71
2022/01/01 08:48:42;;;;;;;52.20;26.80;;;;;;;1.60;72.44;93934.88;2072803;69;20253;-69
2022/01/01 08:51:16;;;;;;;49.28;27.02;;;;;;;1.16;73.91;93948.75;2072973;69;20148;-72
2022/01/01 08:53:42;;;;;;;52.00;27.00;;;;;;;1.45;73.79;93943.66;2077140;69;20655;-70
2022/01/01 08:56:07;;;;;;;51.47;27.70;;;;;;;1.86;73.87;93935.06;2078509;69;20214;-68
2022/01/01 08:58:34;;;;;;;70.07;33.50;;;;;;;1.12;76.01;93939.19;2077566;69;20147;-69
2022/01/01 09:01:00;;;;;;;78.70;39.35;;;;;;;1.80;76.13;93942.00;2075816;69;20201;-69
2022/01/01 09:03:27;;;;;;;79.13;39.38;;;;;;;2.43;74.25;93938.59;2075085;69;20151;-74
2022/01/01 09:05:53;;;;;;;67.05;34.45;;;;;;;2.91;72.21;93939.63;2075204;69;20647;-71
2022/01/01 09:08:19;;;;;;;67.53;33.15;;;;;;;3.15;71.66;93946.28;2075030;69;20297;-72
2022/01/01 09:10:45;;;;;;;60.72;30.90;;;;;;;3.50;70.50;93945.91;2072459;69;20263;-72
2022/01/01 09:13:10;;;;;;;56.85;29.77;;;;;;;3.88;72.65;93937.31;2075684;69;20587;-71
2022/01/01 09:15:36;;;;;;;54.55;31.35;;;;;;;3.23;70.86;93942.34;2075091;69;20152;-71
2022/01/01 09:18:02;;;;;;;52.22;28.92;;;;;;;3.90;70.06;93945.16;2075161;69;20248;-71
2022/01/01 09:20:27;;;;;;;47.17;24.13;;;;;;;4.24;69.02;93945.94;2074621;69;20218;-72
2022/01/01 09:22:53;;;;;;;42.17;21.77;;;;;;;4.68;69.49;93949.03;2071049;69;20223;-72
2022/01/01 09:25:18;;;;;;;40.03;19.75;;;;;;;4.50;68.15;93963.91;2075050;69;20147;-72
2022/01/01 09:27:44;;;;;;;42.35;20.50;;;;;;;4.93;67.77;93957.84;2075102;69;20139;-72
2022/01/01 09:30:10;;;;;;;41.78;21.15;;;;;;;5.30;67.46;93953.13;2075173;69;20513;-72
2022/01/01 09:32:36;;;;;;;40.85;20.45;;;;;;;4.64;66.70;93970.19;2074943;69;20273;-72
2022/01/01 09:35:02;;;;;;;31.17;18.15;;;;;;;5.00;66.38;93970.38;2074929;69;20148;-73
2022/01/01 09:37:29;;;;;;;36.17;20.25;;;;;;;5.34;64.87;93967.50;2074989;69;20166;-76
2022/01/01 09:39:56;;;;;;;40.05;21.85;;;;;;;5.48;64.67;93971.69;2075003;69;20147;-71
2022/01/01 09:42:23;;;;;;;39.55;21.88;;;;;;;5.79;64.57;93969.88;2071802;69;20230;-73
2022/01/01 09:44:52;;;;;;;31.95;17.88;;;;;;;6.33;63.81;93961.81;2071667;69;20136;-72
2022/01/01 09:47:18;;;;;;;40.75;18.75;;;;;;;6.61;63.53;93969.38;2074995;69;20168;-72
2022/01/01 09:49:45;;;;;;;31.85;16.27;;;;;;;6.91;62.76;93957.47;2074823;69;20147;-73
2022/01/01 09:52:12;;;;;;;32.13;17.23;;;;;;;7.01;61.58;93955.66;2075167;69;20167;-72
2022/01/01 09:54:38;;;;;;;30.77;17.00;;;;;;;6.75;60.49;93951.13;2074941;69;20166;-75
2022/01/01 09:57:04;;;;;;;28.02;16.55;;;;;;;7.46;60.97;93945.78;2075100;69;20147;-74
2022/01/01 09:59:31;;;;;;;28.77;16.63;;;;;;;7.70;59.49;93946.50;2075015;69;20177;-74
2022/01/01 10:01:56;;;;;;;22.60;13.15;;;;;;;7.89;57.89;93944.06;2074928;69;20646;-73
2022/01/01 10:04:22;;;;;;;22.55;12.68;;;;;;;7.24;59.11;93940.91;2074843;69;20148;-72
2022/01/01 10:07:04;;;;;;;19.38;12.38;;;;;;;7.93;58.57;93950.03;2074965;69;20178;-73
2022/01/01 10:09:35;;;;;;;25.30;12.47;;;;;;;8.30;57.67;93951.25;2071562;69;20148;-72
2022/01/01 10:12:01;;;;;;;22.63;13.55;;;;;;;8.11;57.30;93940.47;2074914;69;20582;-76
2022/01/01 10:14:53;;;;;;;25.38;15.15;;;;;;;8.31;56.98;93941.50;2075008;69;20654;-74
2022/01/01 10:17:21;;;;;;;19.02;11.57;;;;;;;8.20;55.43;93938.34;2074150;69;20187;-72
2022/01/01 10:19:49;;;;;;;19.13;11.70;;;;;;;9.10;55.95;93933.63;2074806;69;20533;-72
2022/01/01 10:22:23;;;;;;;17.42;10.63;;;;;;;9.21;54.01;93926.06;2075123;69;20202;-72
2022/01/01 10:28:05;;;;;;;20.08;11.05;;;;;;;9.84;52.36;93918.03;2074866;69;20522;-72
2022/01/01 10:30:39;;;;;;;17.13;10.70;;;;;;;10.13;51.37;93911.97;2074901;69;20152;-72
2022/01/01 10:33:05;;;;;;;16.63;10.27;;;;;;;9.63;51.20;93917.69;2074907;69;20183;-73
2022/01/01 10:35:56;;;;;;;16.20;9.77;;;;;;;10.76;50.84;93919.09;2074758;69;20246;-77
2022/01/01 10:38:27;;;;;;;15.60;9.18;;;;;;;9.93;48.98;93911.03;2072824;69;20150;-72
2022/01/01 10:41:04;;;;;;;12.88;8.32;;;;;;;10.91;49.17;93913.28;2071403;69;20583;-72
2022/01/01 10:43:41;;;;;;;15.43;9.13;;;;;;;11.60;46.46;93906.59;2074893;69;20144;-71
2022/01/01 10:46:28;;;;;;;12.35;8.20;;;;;;;10.75;46.29;93912.72;2074864;69;20216;-73
2022/01/01 10:48:57;;;;;;;25.15;14.60;;;;;;;11.61;46.02;93914.47;2074809;69;20525;-72
2022/01/01 10:51:24;;;;;;;26.23;14.52;;;;;;;12.08;44.99;93901.06;2074617;69;20591;-73
2022/01/01 10:54:02;;;;;;;23.38;13.05;;;;;;;12.87;44.49;93891.94;2074907;69;20155;-72
2022/01/01 10:56:37;;;;;;;30.23;15.30;;;;;;;13.46;43.95;93884.78;2074803;69;20171;-73
2022/01/01 10:59:03;;;;;;;27.73;16.55;;;;;;;13.52;42.71;93886.56;2074857;69;20150;-72
2022/01/01 11:01:29;;;;;;;27.98;16.35;;;;;;;13.70;42.89;93882.16;2074865;69;20143;-72
2022/01/01 11:03:56;;;;;;;19.83;11.35;;;;;;;15.57;40.14;93865.09;2074755;69;20566;-72
2022/01/01 11:06:22;;;;;;;22.92;13.73;;;;;;;15.22;39.62;93863.00;2074920;69;20500;-77
2022/01/01 11:08:49;;;;;;;18.17;12.13;;;;;;;17.87;36.01;93866.06;2074773;69;20608;-74
2022/01/01 11:11:15;;;;;;;20.63;10.48;;;;;;;18.60;34.42;93854.78;2074826;69;20143;-73
2022/01/01 11:13:42;;;;;;;110.38;64.00;;;;;;;16.60;34.10;93854.81;2074780;69;20156;-73
2022/01/01 11:16:09;;;;;;;18.67;12.52;;;;;;;15.11;36.68;93857.31;2074789;69;20694;-74
2022/01/01 11:18:36;;;;;;;14.18;9.75;;;;;;;13.90;37.67;93843.16;2074813;69;20587;-72
2022/01/01 11:21:04;;;;;;;49.97;29.33;;;;;;;12.12;40.98;93841.34;2071305;69;20160;-73
2022/01/01 11:23:32;;;;;;;55.28;30.65;;;;;;;12.67;42.41;93845.31;2074776;69;20136;-73
2022/01/01 11:25:58;;;;;;;77.97;42.83;;;;;;;12.26;42.55;93836.00;2074769;69;20147;-72
2022/01/01 11:28:24;;;;;;;18.33;11.63;;;;;;;11.90;42.39;93835.53;2071429;69;20147;-73
2022/01/01 11:30:52;;;;;;;33.03;18.98;;;;;;;11.24;43.24;93834.06;2074709;69;20197;-73